Portada
METAR-TAF:

METAR-TAF

Aeroports :

Yap, Micronèsia

latitud: 09-29N, longitud: 138-05E, altitud: 28 m

Observació

L'informe es va fer fa 28 minuts, a les 00:50 UTC
Vent calma
Temperatura 31°C
Humitat 71%
Pressió 1012 hPa
Visibilitat: 19.3 km
Escasses núvols a una alçada de 1700 ft, Cumulus congestus.
Núvols disperses a una alçada de 13000 ft
Cel ennuvolat a una alçada de 30000 ft
xàfecs en les proximitats

METAR: PTYA 240050Z 00000KT 12SM VCSH FEW017TCU SCT130 BKN300 31/25 A2988 RMK VCSH NE TCU NE AND SE SLP120 T03120249

Hora: 11:18 (01:18 UTC)

Pronòstic

L'informe es va fer fa 1 hora i 43 minuts, a les 23:35 UTC
Pronòstic vàlid del 24 a les 00 UTC al 24 a les 24 UTC
Vent 4 kt amb direcció variable
Visibilitat: 10 km
Núvols disperses a una alçada de 1600 ft
Núvols disperses a una alçada de 5000 ft
xàfecs en les proximitats

TAF: PTYA 232335Z 2400/2424 VRB04KT P6SM VCSH SCT016 SCT050

Observacions i pronòstics meteorològics de més de 4000 aeroports (METAR i TAF).

Les estacions disponibles són els punts grocs i vermells al mapa.

Posi el ratolí al punt desitjat per veure el nom de l'estació.

Feu clic per veure les observacions i els pronòstics meteorològics.

Per canviar el mapa: feu clic els botons verds amb una creu de color negre per apropar; al botó verd amb un guió per allunyar la imatge; o en les fletxes verdes per a mapes adjacents.


METAR-TAF: